createdAt,value
2023-01-07T00:01:32.629Z,3.30
2023-01-07T00:04:01.031Z,4.03
2023-01-07T00:06:33.286Z,2.40
2023-01-07T00:09:00.673Z,3.60
2023-01-07T00:11:28.879Z,3.23
2023-01-07T00:13:56.587Z,2.37
2023-01-07T00:16:26.215Z,1.87
2023-01-07T00:18:54.025Z,1.23
2023-01-07T00:21:22.185Z,2.27
2023-01-07T00:23:49.491Z,1.53
2023-01-07T00:26:20.539Z,1.80
2023-01-07T00:28:48.852Z,1.37
2023-01-07T00:31:20.260Z,1.30
2023-01-07T00:33:52.090Z,1.73
2023-01-07T00:36:20.051Z,2.47
2023-01-07T00:38:47.257Z,2.50
2023-01-07T00:41:14.539Z,9.50
2023-01-07T00:43:41.660Z,5.87
2023-01-07T00:46:09.547Z,4.03
2023-01-07T00:48:36.671Z,4.40
2023-01-07T00:51:03.835Z,2.70
2023-01-07T00:53:30.963Z,4.30
2023-01-07T00:55:58.174Z,4.37
2023-01-07T00:58:26.223Z,2.07
2023-01-07T01:00:57.706Z,2.70
2023-01-07T01:03:25.035Z,2.33
2023-01-07T01:05:52.252Z,2.70
2023-01-07T01:08:20.266Z,1.23
2023-01-07T01:10:47.725Z,3.07
2023-01-07T01:13:18.095Z,2.53
2023-01-07T01:15:46.139Z,1.97
2023-01-07T01:18:14.425Z,1.83
2023-01-07T01:20:41.767Z,2.53
2023-01-07T01:23:09.544Z,3.00
2023-01-07T01:25:36.705Z,5.27
2023-01-07T01:28:03.833Z,2.83
2023-01-07T01:30:30.931Z,4.67
2023-01-07T01:32:58.090Z,4.07
2023-01-07T01:35:26.316Z,4.73
2023-01-07T01:37:53.522Z,4.67
2023-01-07T01:40:20.690Z,5.20
2023-01-07T01:42:47.896Z,4.00
2023-01-07T01:45:15.090Z,4.20
2023-01-07T01:47:50.920Z,4.27
2023-01-07T01:50:18.005Z,3.73
2023-01-07T01:52:54.037Z,4.27
2023-01-07T01:55:25.134Z,3.67
2023-01-07T01:57:53.966Z,3.50
2023-01-07T02:00:21.102Z,4.77
2023-01-07T02:02:50.538Z,4.37
2023-01-07T02:05:18.015Z,6.30
2023-01-07T02:07:45.148Z,4.83
2023-01-07T02:10:20.503Z,7.00
2023-01-07T02:12:54.889Z,3.27
2023-01-07T02:15:27.753Z,2.87
2023-01-07T02:18:01.016Z,4.80
2023-01-07T02:20:28.174Z,4.40
2023-01-07T02:23:01.458Z,2.97
2023-01-07T02:25:47.133Z,5.90
2023-01-07T02:28:14.265Z,4.10
2023-01-07T02:30:51.811Z,5.97
2023-01-07T02:33:22.673Z,4.00
2023-01-07T02:35:49.749Z,6.77
2023-01-07T02:38:19.991Z,5.00
2023-01-07T02:41:05.142Z,4.53
2023-01-07T02:43:40.955Z,3.33
2023-01-07T02:46:11.305Z,2.63
2023-01-07T02:48:39.485Z,3.97
2023-01-07T02:51:06.644Z,5.27
2023-01-07T02:53:34.135Z,3.30
2023-01-07T02:56:07.355Z,6.00
2023-01-07T02:58:37.513Z,4.67
2023-01-07T03:01:23.542Z,4.63
2023-01-07T03:03:56.642Z,4.67
2023-01-07T03:06:26.826Z,4.83
2023-01-07T03:08:58.741Z,4.87
2023-01-07T03:11:27.948Z,5.30
2023-01-07T03:14:02.985Z,3.73
2023-01-07T03:16:33.304Z,6.33
2023-01-07T03:19:01.576Z,4.10
2023-01-07T03:21:30.314Z,3.03
2023-01-07T03:23:58.033Z,6.10
2023-01-07T03:26:28.153Z,4.57
2023-01-07T03:28:56.194Z,3.27
2023-01-07T03:31:23.521Z,4.17
2023-01-07T03:33:56.623Z,3.93
2023-01-07T03:36:26.218Z,3.97
2023-01-07T03:38:53.783Z,5.47
2023-01-07T03:41:39.832Z,4.87
2023-01-07T03:44:07.012Z,4.40
2023-01-07T03:46:34.897Z,5.20
2023-01-07T03:49:01.999Z,4.20
2023-01-07T03:51:29.140Z,3.63
2023-01-07T03:53:56.256Z,2.57
2023-01-07T03:56:23.380Z,3.33
2023-01-07T03:58:50.472Z,5.00
2023-01-07T04:01:17.671Z,5.43
2023-01-07T04:03:44.841Z,4.57
2023-01-07T04:06:12.006Z,4.60
2023-01-07T04:08:39.171Z,5.40
2023-01-07T04:11:06.393Z,4.23
2023-01-07T04:13:33.525Z,2.90
2023-01-07T04:16:00.672Z,3.87
2023-01-07T04:18:27.808Z,5.80
2023-01-07T04:20:55.008Z,3.27
2023-01-07T04:23:22.126Z,4.20
2023-01-07T04:25:49.629Z,6.03
2023-01-07T04:28:19.798Z,4.57
2023-01-07T04:30:46.932Z,5.63
2023-01-07T04:33:14.160Z,3.70
2023-01-07T04:35:41.519Z,4.80
2023-01-07T04:38:08.658Z,3.50
2023-01-07T04:40:35.764Z,3.97
2023-01-07T04:43:02.859Z,4.57
2023-01-07T04:45:29.942Z,3.40
2023-01-07T04:47:57.539Z,3.13
2023-01-07T04:50:25.257Z,5.87
2023-01-07T04:52:52.400Z,6.10
2023-01-07T04:55:19.581Z,4.97
2023-01-07T04:57:46.684Z,6.67
2023-01-07T05:00:14.017Z,5.23
2023-01-07T05:02:41.186Z,5.13
2023-01-07T05:05:08.496Z,5.47
2023-01-07T05:07:35.609Z,5.87
2023-01-07T05:10:02.762Z,4.33
2023-01-07T05:12:29.829Z,5.80
2023-01-07T05:14:56.951Z,5.50
2023-01-07T05:17:24.061Z,4.50
2023-01-07T05:19:51.175Z,3.90
2023-01-07T05:22:18.269Z,4.33
2023-01-07T05:24:45.455Z,3.93
2023-01-07T05:27:12.672Z,5.43
2023-01-07T05:29:39.896Z,4.90
2023-01-07T05:32:07.072Z,4.73
2023-01-07T05:34:34.232Z,4.80
2023-01-07T05:37:01.326Z,8.87
2023-01-07T05:39:28.431Z,6.80
2023-01-07T05:41:55.619Z,6.20
2023-01-07T05:44:22.749Z,4.97
2023-01-07T05:46:49.887Z,7.03
2023-01-07T05:49:17.057Z,5.73
2023-01-07T05:51:44.258Z,4.83
2023-01-07T05:54:11.445Z,6.00
2023-01-07T05:56:38.580Z,5.10
2023-01-07T05:59:05.681Z,6.20
2023-01-07T06:01:32.901Z,6.43
2023-01-07T06:04:00.045Z,5.60
2023-01-07T06:06:27.213Z,6.70
2023-01-07T06:08:54.357Z,6.60
2023-01-07T06:11:21.482Z,7.53
2023-01-07T06:13:48.650Z,5.53
2023-01-07T06:16:16.682Z,6.20
2023-01-07T06:18:43.801Z,7.53
2023-01-07T06:21:11.034Z,8.27
2023-01-07T06:23:38.219Z,5.27
2023-01-07T06:26:05.529Z,9.67
2023-01-07T06:28:32.707Z,6.50
2023-01-07T06:30:59.869Z,5.67
2023-01-07T06:33:27.059Z,7.13
2023-01-07T06:35:54.173Z,5.27
2023-01-07T06:38:21.301Z,10.50
2023-01-07T06:40:48.382Z,5.93
2023-01-07T06:43:15.489Z,7.77
2023-01-07T06:45:42.872Z,8.33
2023-01-07T06:48:10.022Z,6.27
2023-01-07T06:50:37.217Z,8.07
2023-01-07T06:53:04.829Z,7.13
2023-01-07T06:55:31.949Z,6.90
2023-01-07T06:57:59.094Z,7.50
2023-01-07T07:00:26.170Z,8.97
2023-01-07T07:02:53.439Z,8.87
2023-01-07T07:05:20.585Z,8.63
2023-01-07T07:07:47.752Z,7.90
2023-01-07T07:10:14.998Z,6.97
2023-01-07T07:12:42.130Z,9.13
2023-01-07T07:15:09.688Z,5.93
2023-01-07T07:17:36.849Z,2.23
2023-01-07T07:20:04.440Z,4.50
2023-01-07T07:22:31.538Z,2.00
2023-01-07T07:24:58.665Z,2.73
2023-01-07T07:27:25.783Z,3.20
2023-01-07T07:29:52.943Z,2.20
2023-01-07T07:32:20.136Z,1.67
2023-01-07T07:34:47.272Z,2.93
2023-01-07T07:37:14.417Z,2.57
2023-01-07T07:39:41.533Z,2.03
2023-01-07T07:42:08.940Z,1.87
2023-01-07T07:44:36.073Z,2.17
2023-01-07T07:47:03.247Z,2.43
2023-01-07T07:49:30.705Z,6.57
2023-01-07T07:51:57.828Z,3.77
2023-01-07T07:54:25.015Z,1.33
2023-01-07T07:56:52.138Z,1.37
2023-01-07T07:59:19.224Z,2.13
2023-01-07T08:01:46.482Z,1.57
2023-01-07T08:04:13.632Z,2.03
2023-01-07T08:06:40.749Z,2.17
2023-01-07T08:09:07.834Z,2.60
2023-01-07T08:11:35.077Z,2.63
2023-01-07T08:14:02.447Z,4.03
2023-01-07T08:16:29.645Z,5.33
2023-01-07T08:18:56.792Z,2.53
2023-01-07T08:21:23.923Z,2.57
2023-01-07T08:23:51.019Z,2.23
2023-01-07T08:26:18.146Z,3.33
2023-01-07T08:28:46.643Z,2.47
2023-01-07T08:31:14.085Z,5.10
2023-01-07T08:33:41.233Z,3.80
2023-01-07T08:36:18.118Z,3.10
2023-01-07T08:38:50.850Z,3.17
2023-01-07T08:41:17.998Z,4.70
2023-01-07T08:43:45.204Z,8.60
2023-01-07T08:46:12.321Z,9.10
2023-01-07T08:48:40.256Z,9.90
2023-01-07T08:51:07.797Z,9.63
2023-01-07T08:53:34.979Z,9.97
2023-01-07T08:56:02.241Z,7.63
2023-01-07T08:58:29.390Z,8.93
2023-01-07T09:01:00.855Z,10.13
2023-01-07T09:03:28.036Z,9.17
2023-01-07T09:05:55.163Z,5.87
2023-01-07T09:08:22.275Z,5.70
2023-01-07T09:10:49.453Z,5.20
2023-01-07T09:13:16.608Z,11.53
2023-01-07T09:15:43.856Z,8.10
2023-01-07T09:18:11.223Z,10.90
2023-01-07T09:20:38.337Z,9.17
2023-01-07T09:23:05.576Z,16.87
2023-01-07T09:25:32.716Z,29.50
2023-01-07T09:27:59.845Z,23.67
2023-01-07T09:30:27.054Z,24.10
2023-01-07T09:32:54.199Z,26.17
2023-01-07T09:35:21.350Z,16.70
2023-01-07T09:37:48.466Z,16.87
2023-01-07T09:40:21.520Z,10.67
2023-01-07T09:42:58.724Z,10.83
2023-01-07T09:45:27.441Z,10.60
2023-01-07T09:47:58.813Z,15.37
2023-01-07T09:50:29.006Z,10.17
2023-01-07T09:52:58.543Z,8.17
2023-01-07T09:55:29.395Z,7.10
2023-01-07T09:57:56.562Z,7.33
2023-01-07T10:00:24.928Z,7.57
2023-01-07T10:03:14.997Z,5.63
2023-01-07T10:05:45.191Z,5.70
2023-01-07T10:08:29.447Z,6.20
2023-01-07T10:10:59.026Z,7.83
2023-01-07T10:13:47.399Z,11.00
2023-01-07T10:16:32.612Z,12.17
2023-01-07T10:19:05.474Z,11.00
2023-01-07T10:21:38.484Z,8.33
2023-01-07T10:24:12.574Z,6.87
2023-01-07T10:26:45.015Z,6.27
2023-01-07T10:29:15.047Z,7.80
2023-01-07T10:31:42.526Z,7.27
2023-01-07T10:34:22.665Z,6.23
2023-01-07T10:36:58.237Z,5.90
2023-01-07T10:39:30.594Z,6.93
2023-01-07T10:41:57.674Z,8.23
2023-01-07T10:44:37.072Z,8.13
2023-01-07T10:47:23.125Z,7.63
2023-01-07T10:49:58.344Z,9.00
2023-01-07T10:52:38.493Z,7.20
2023-01-07T10:55:14.809Z,7.00
2023-01-07T10:57:42.170Z,6.73
2023-01-07T11:00:13.621Z,7.43
2023-01-07T11:02:44.046Z,8.50
2023-01-07T11:05:14.186Z,7.63
2023-01-07T11:07:46.554Z,6.97
2023-01-07T11:10:16.460Z,7.60
2023-01-07T11:13:01.542Z,7.67
2023-01-07T11:15:30.051Z,7.03
2023-01-07T11:18:00.482Z,5.23
2023-01-07T11:20:46.120Z,5.73
2023-01-07T11:23:22.366Z,7.57
2023-01-07T11:25:49.958Z,5.93
2023-01-07T11:28:21.102Z,5.87
2023-01-07T11:30:57.062Z,4.80
2023-01-07T11:34:01.834Z,6.37
2023-01-07T11:36:13.704Z,5.23
2023-01-07T11:38:40.855Z,7.20
2023-01-07T11:41:18.467Z,6.40
2023-01-07T11:43:48.871Z,5.60
2023-01-07T11:46:21.460Z,4.93
2023-01-07T11:49:00.695Z,7.30
2023-01-07T11:51:28.191Z,3.80
2023-01-07T11:53:55.347Z,4.50
2023-01-07T11:56:22.475Z,3.20
2023-01-07T11:58:50.747Z,4.80
2023-01-07T12:01:17.993Z,4.80
2023-01-07T12:03:48.178Z,4.60
2023-01-07T12:06:26.924Z,3.77
2023-01-07T12:09:09.318Z,4.20
2023-01-07T12:11:39.878Z,6.40
2023-01-07T12:14:08.306Z,5.93
2023-01-07T12:16:36.374Z,4.23
2023-01-07T12:19:31.607Z,4.00
2023-01-07T12:22:07.789Z,3.70
2023-01-07T12:24:34.998Z,4.07
2023-01-07T12:27:11.298Z,3.13
2023-01-07T12:29:41.593Z,4.47
2023-01-07T12:32:23.930Z,4.83
2023-01-07T12:35:14.625Z,4.13
2023-01-07T12:37:42.617Z,5.60
2023-01-07T12:40:18.630Z,2.80
2023-01-07T12:42:52.488Z,8.20
2023-01-07T12:45:26.557Z,3.90
2023-01-07T12:47:56.345Z,6.57
2023-01-07T12:50:37.231Z,6.50
2023-01-07T12:53:20.062Z,7.10
2023-01-07T12:55:57.158Z,3.67
2023-01-07T12:58:44.811Z,4.10
2023-01-07T13:01:36.367Z,4.47
2023-01-07T13:04:06.391Z,3.77
2023-01-07T13:06:45.983Z,3.97
2023-01-07T13:09:17.020Z,5.70
2023-01-07T13:12:04.812Z,4.23
2023-01-07T13:14:41.880Z,4.13
2023-01-07T13:17:16.587Z,3.80
2023-01-07T13:19:43.853Z,4.63
2023-01-07T13:22:31.245Z,4.70
2023-01-07T13:25:18.952Z,3.93
2023-01-07T13:27:58.384Z,4.20
2023-01-07T13:30:34.588Z,7.30
2023-01-07T13:33:01.647Z,5.27
2023-01-07T13:35:42.185Z,3.50
2023-01-07T13:38:09.255Z,4.70
2023-01-07T13:40:55.154Z,4.13
2023-01-07T13:43:22.233Z,2.90
2023-01-07T13:46:07.704Z,4.13
2023-01-07T13:48:38.361Z,3.43
2023-01-07T13:51:06.608Z,3.20
2023-01-07T13:53:47.137Z,4.33
2023-01-07T13:56:17.337Z,5.00
2023-01-07T13:58:48.800Z,3.67
2023-01-07T14:01:19.946Z,5.50
2023-01-07T14:03:47.581Z,4.03
2023-01-07T14:06:20.692Z,3.27
2023-01-07T14:08:56.953Z,4.77
2023-01-07T14:11:33.017Z,5.07
2023-01-07T14:14:02.884Z,5.90
2023-01-07T14:16:29.937Z,4.40
2023-01-07T14:19:06.988Z,4.03
2023-01-07T14:21:42.633Z,5.57
2023-01-07T14:24:18.974Z,8.63
2023-01-07T14:27:04.565Z,4.97
2023-01-07T14:29:39.352Z,4.97
2023-01-07T14:32:41.717Z,14.37
2023-01-07T14:35:22.677Z,6.77
2023-01-07T14:37:49.870Z,5.60
2023-01-07T14:40:29.248Z,6.03
2023-01-07T14:42:57.314Z,6.40
2023-01-07T14:45:39.812Z,7.10
2023-01-07T14:48:09.996Z,4.07
2023-01-07T14:50:43.272Z,4.57
2023-01-07T14:53:30.323Z,4.47
2023-01-07T14:56:11.732Z,5.13
2023-01-07T14:58:57.937Z,4.10
2023-01-07T15:01:43.909Z,4.23
2023-01-07T15:04:28.712Z,4.83
2023-01-07T15:06:57.448Z,4.07
2023-01-07T15:09:51.731Z,4.57
2023-01-07T15:12:41.322Z,5.63
2023-01-07T15:15:29.716Z,5.67
2023-01-07T15:17:57.025Z,8.77
2023-01-07T15:20:26.356Z,8.23
2023-01-07T15:23:06.314Z,7.43
2023-01-07T15:25:41.162Z,5.10
2023-01-07T15:28:17.861Z,7.13
2023-01-07T15:30:48.030Z,5.53
2023-01-07T15:33:30.244Z,6.90
2023-01-07T15:35:58.302Z,9.13
2023-01-07T15:38:31.153Z,6.53
2023-01-07T15:40:59.374Z,4.27
2023-01-07T15:43:27.500Z,7.90
2023-01-07T15:46:05.407Z,18.57
2023-01-07T15:48:32.552Z,15.17
2023-01-07T15:51:02.652Z,9.70
2023-01-07T15:53:30.411Z,6.90
2023-01-07T15:56:03.191Z,6.63
2023-01-07T15:58:40.574Z,6.87
2023-01-07T16:01:09.266Z,7.80
2023-01-07T16:03:38.479Z,7.90
2023-01-07T16:06:05.864Z,6.77
2023-01-07T16:08:34.169Z,6.73
2023-01-07T16:11:23.315Z,7.73
2023-01-07T16:14:00.773Z,5.47
2023-01-07T16:16:29.318Z,6.13
2023-01-07T16:18:57.493Z,8.20
2023-01-07T16:21:26.380Z,6.20
2023-01-07T16:23:54.558Z,8.07
2023-01-07T16:26:24.826Z,6.90
2023-01-07T16:29:05.963Z,7.70
2023-01-07T16:31:35.066Z,8.27
2023-01-07T16:34:03.222Z,7.20
2023-01-07T16:36:37.646Z,6.80
2023-01-07T16:39:06.943Z,7.73
2023-01-07T16:41:34.963Z,6.90
2023-01-07T16:44:03.058Z,7.77
2023-01-07T16:46:36.105Z,7.77
2023-01-07T16:49:12.246Z,7.90
2023-01-07T16:51:43.915Z,7.93
2023-01-07T16:54:26.075Z,10.07
2023-01-07T16:56:55.195Z,9.37
2023-01-07T16:59:23.402Z,10.07
2023-01-07T17:01:50.818Z,9.70
2023-01-07T17:04:24.217Z,10.33
2023-01-07T17:06:51.672Z,11.70
2023-01-07T17:09:23.875Z,10.83
2023-01-07T17:11:52.160Z,11.57
2023-01-07T17:14:38.033Z,12.00
2023-01-07T17:17:25.696Z,13.93
2023-01-07T17:19:57.981Z,13.87
2023-01-07T17:22:28.222Z,13.23
2023-01-07T17:25:00.354Z,15.87
2023-01-07T17:27:29.539Z,12.63
2023-01-07T17:29:56.956Z,13.73
2023-01-07T17:32:27.211Z,15.90
2023-01-07T17:34:54.335Z,13.77
2023-01-07T17:37:21.829Z,13.67
2023-01-07T17:39:51.310Z,16.60
2023-01-07T17:42:40.134Z,14.50
2023-01-07T17:45:07.635Z,15.97
2023-01-07T17:47:34.803Z,20.13
2023-01-07T17:50:01.958Z,17.37
2023-01-07T17:52:29.631Z,19.80
2023-01-07T17:54:56.758Z,18.70
2023-01-07T17:57:23.834Z,20.77
2023-01-07T17:59:51.838Z,19.07
2023-01-07T18:02:19.957Z,20.90
2023-01-07T18:04:47.212Z,18.60
2023-01-07T18:07:15.617Z,20.17
2023-01-07T18:09:43.029Z,22.87
2023-01-07T18:12:30.017Z,23.50
2023-01-07T18:14:58.319Z,20.70
2023-01-07T18:17:25.622Z,25.97
2023-01-07T18:19:52.829Z,22.93
2023-01-07T18:22:20.918Z,24.40
2023-01-07T18:24:51.041Z,21.73
2023-01-07T18:27:18.722Z,26.27
2023-01-07T18:29:45.898Z,27.23
2023-01-07T18:32:13.006Z,28.43
2023-01-07T18:34:40.180Z,26.37
2023-01-07T18:37:07.292Z,23.37
2023-01-07T18:39:34.646Z,24.03
2023-01-07T18:42:01.790Z,22.80
2023-01-07T18:44:28.969Z,23.83
2023-01-07T18:46:56.101Z,21.37
2023-01-07T18:49:23.274Z,19.80
2023-01-07T18:51:50.387Z,21.57
2023-01-07T18:54:17.579Z,24.23
2023-01-07T18:56:45.846Z,24.23
2023-01-07T18:59:13.565Z,25.10
2023-01-07T19:01:40.850Z,25.17
2023-01-07T19:04:08.175Z,23.90
2023-01-07T19:06:35.364Z,27.57
2023-01-07T19:09:02.551Z,25.20
2023-01-07T19:11:29.783Z,28.00
2023-01-07T19:13:56.926Z,30.30
2023-01-07T19:16:24.056Z,30.53
2023-01-07T19:18:53.054Z,30.70
2023-01-07T19:21:21.382Z,29.47
2023-01-07T19:23:48.902Z,28.57
2023-01-07T19:26:16.102Z,28.80
2023-01-07T19:28:43.186Z,30.13
2023-01-07T19:31:11.529Z,28.43
2023-01-07T19:33:39.538Z,29.63
2023-01-07T19:36:09.278Z,28.67
2023-01-07T19:38:40.079Z,29.13
2023-01-07T19:41:08.233Z,28.93
2023-01-07T19:43:35.423Z,31.63
2023-01-07T19:46:02.645Z,28.60
2023-01-07T19:48:29.802Z,29.43
2023-01-07T19:50:58.052Z,31.30
2023-01-07T19:53:25.608Z,35.77
2023-01-07T19:55:54.355Z,43.80
2023-01-07T19:58:22.071Z,43.33
2023-01-07T20:00:49.271Z,46.57
2023-01-07T20:03:16.423Z,38.80
2023-01-07T20:05:43.609Z,40.33
2023-01-07T20:08:10.712Z,40.10
2023-01-07T20:10:37.801Z,33.27
2023-01-07T20:13:06.406Z,34.83
2023-01-07T20:15:33.545Z,32.17
2023-01-07T20:18:00.650Z,30.30
2023-01-07T20:20:27.759Z,31.03
2023-01-07T20:22:54.927Z,32.17
2023-01-07T20:25:22.024Z,29.73
2023-01-07T20:27:49.114Z,32.93
2023-01-07T20:30:16.219Z,35.53
2023-01-07T20:32:43.379Z,34.43
2023-01-07T20:35:10.664Z,31.90
2023-01-07T20:37:37.804Z,33.10
2023-01-07T20:40:05.162Z,32.37
2023-01-07T20:42:32.321Z,34.47
2023-01-07T20:45:00.301Z,32.10
2023-01-07T20:47:27.540Z,33.33
2023-01-07T20:49:54.647Z,28.47
2023-01-07T20:52:21.852Z,33.50
2023-01-07T20:54:49.004Z,30.77
2023-01-07T20:57:16.100Z,29.43
2023-01-07T20:59:43.246Z,30.90
2023-01-07T21:02:15.667Z,29.77
2023-01-07T21:04:43.068Z,30.47
2023-01-07T21:07:10.543Z,30.73
2023-01-07T21:09:37.736Z,29.47
2023-01-07T21:12:04.875Z,28.90
2023-01-07T21:14:32.286Z,29.47
2023-01-07T21:16:59.407Z,29.80
2023-01-07T21:19:26.537Z,31.83
2023-01-07T21:21:53.671Z,30.00
2023-01-07T21:24:20.804Z,31.20
2023-01-07T21:26:48.456Z,32.67
2023-01-07T21:29:16.152Z,32.60
2023-01-07T21:31:45.206Z,33.10
2023-01-07T21:34:12.455Z,35.07
2023-01-07T21:36:40.580Z,32.80
2023-01-07T21:39:08.581Z,34.53
2023-01-07T21:41:35.738Z,35.37
2023-01-07T21:44:02.894Z,32.87
2023-01-07T21:46:29.999Z,32.97
2023-01-07T21:48:57.124Z,32.07
2023-01-07T21:51:25.656Z,31.97
2023-01-07T21:53:55.826Z,32.50
2023-01-07T21:56:23.392Z,35.73
2023-01-07T21:58:50.469Z,31.23
2023-01-07T22:01:18.446Z,34.10
2023-01-07T22:03:46.976Z,35.07
2023-01-07T22:06:17.649Z,34.10
2023-01-07T22:08:44.751Z,31.33
2023-01-07T22:11:18.330Z,32.13
2023-01-07T22:13:45.633Z,33.67
2023-01-07T22:16:12.832Z,35.63
2023-01-07T22:18:40.999Z,31.17
2023-01-07T22:21:08.164Z,31.73
2023-01-07T22:23:37.242Z,32.27
2023-01-07T22:26:05.215Z,32.43
2023-01-07T22:28:33.047Z,31.63
2023-01-07T22:31:02.930Z,32.37
2023-01-07T22:33:30.078Z,35.50
2023-01-07T22:35:57.348Z,33.40
2023-01-07T22:38:26.997Z,33.33
2023-01-07T22:40:55.602Z,30.70
2023-01-07T22:43:24.136Z,29.63
2023-01-07T22:45:53.709Z,28.27
2023-01-07T22:48:24.027Z,30.50
2023-01-07T22:50:55.407Z,29.10
2023-01-07T22:53:22.714Z,27.40
2023-01-07T22:55:49.856Z,29.43
2023-01-07T22:58:18.360Z,28.70
2023-01-07T23:00:51.586Z,30.43
2023-01-07T23:03:19.286Z,28.30
2023-01-07T23:05:46.437Z,30.50
2023-01-07T23:08:13.578Z,30.53
2023-01-07T23:10:42.471Z,24.77
2023-01-07T23:13:09.751Z,29.00
2023-01-07T23:15:38.168Z,29.90
2023-01-07T23:18:06.009Z,29.63
2023-01-07T23:20:33.596Z,30.80
2023-01-07T23:23:00.818Z,26.53
2023-01-07T23:25:28.209Z,25.83
2023-01-07T23:27:55.389Z,28.40
2023-01-07T23:30:22.715Z,27.70
2023-01-07T23:32:49.859Z,26.17
2023-01-07T23:35:17.049Z,27.87
2023-01-07T23:37:44.194Z,28.23
2023-01-07T23:40:11.630Z,25.03
2023-01-07T23:42:39.280Z,27.13
2023-01-07T23:45:07.263Z,27.50
2023-01-07T23:47:34.702Z,26.73
2023-01-07T23:50:01.834Z,27.83
2023-01-07T23:52:28.966Z,28.37
2023-01-07T23:54:56.083Z,29.40
2023-01-07T23:57:23.224Z,29.87
2023-01-07T23:59:50.334Z,30.30
